• Join FlightAware (Why Join?)
  • Login
  • US Flag 
09:33AM EDT


 

Airport Tracker/Info


-or-


 

Live Flight TrackerFlight Track Log ✈ RPA3869 ✈ 17-May-2013 ✈ KEWR - KALB

Flight Track Log - Related Links

Times and Time Zones

All times are in EDT time to prevent confusion due to time zone crossing. See the RPA3869 flight status page for this flight to view local times or setup timezone preferences in your user account.

Time Position Orientation Groundspeed Altitude Reporting Facility
EDT Latitude Longitude Course Direction KTS MPH feet Rate Location/Type
05:25PM 40.7333 -74.1333 90° East 206 237 2,500  Level New York TRACON
05:26PM 40.8000 -74.1000 21° North 245 282 3,300 1,140 Climbing New York TRACON
05:27PM 40.8667 -74.1000 360° North 219 252 4,800 1,320 Climbing New York TRACON
05:28PM 41.0705 -74.1358 North  Level FlightAware Approximate
05:28PM 40.9167 -74.1167 346° North 222 255 6,000  Level New York TRACON
05:29PM 41.1551 -74.1105 74° East  Level FlightAware Approximate
05:29PM 40.9833 -74.1167 360° North 245 282 6,100  Level New York TRACON
05:30PM 41.1827 -73.9864 74° East  Level FlightAware Approximate
05:30PM 41.0333 -74.0833 27° Northeast 264 304 6,100  Level New York TRACON
05:31PM 41.2000 -73.8680 90° East  Level FlightAware Approximate
05:33PM 41.1367 -73.8842 55° Northeast 270 311 8,700  Level Boston Center
05:34PM 41.1794 -73.7914 58° Northeast 275 316 10,400 1,200 Climbing Boston Center
05:35PM 41.2200 -73.7039 58° Northeast 275 316 11,100 300 Climbing Boston Center
05:36PM 41.2669 -73.6111 56° Northeast 285 328 11,100 -60 Level Boston Center
05:37PM 41.3178 -73.5317 50° Northeast 291 335 11,000 -60 Descending Boston Center
05:38PM 41.3767 -73.4553 44° Northeast 280 322 11,000 60 Level Boston Center
05:39PM 41.4317 -73.3814 45° Northeast 280 322 11,200 660 Climbing Boston Center
05:40PM 41.4864 -73.3131 43° Northeast 286 329 12,400 900 Climbing Boston Center
05:41PM 41.5678 -73.2919 11° North 274 315 13,100 300 Climbing Boston Center
05:42PM 41.6300 -73.3261 338° Northwest 274 315 13,000 -60 Descending Boston Center
05:43PM 41.7069 -73.3606 342° North 269 310 13,000  Level Boston Center
05:44PM 41.7794 -73.3894 343° North 269 310 13,000  Level Boston Center
05:45PM 41.8542 -73.4211 342° North 269 310 13,000 60 Level Boston Center
05:45PM 41.8833 -73.4300 347° North 275 316 13,100 -300 Climbing Boston Center
05:46PM 41.9228 -73.4444 345° North 274 315 12,700 -1,020 Descending Boston Center
05:46PM 41.9603 -73.4647 338° Northwest 273 314 12,100 -1,500 Descending Boston Center
05:47PM 41.9975 -73.4764 347° North 269 310 11,200 -1,020 Descending Boston Center
05:47PM 42.0328 -73.4939 340° North 260 299 11,100 -240 Descending Boston Center
05:48PM 42.0578 -73.5083 337° Northwest 258 297 11,000  Descending Boston Center
05:48PM 42.0972 -73.5256 342° North 251 289 11,100 60 Climbing Boston Center
05:49PM 42.1303 -73.5542 327° Northwest 258 297 11,100  Level Boston Center
05:49PM 42.1592 -73.5689 339° North 263 303 11,100 -300 Level Boston Center
05:50PM 42.1967 -73.5919 336° Northwest 252 290 10,800 -720 Descending Boston Center
05:50PM 42.2278 -73.6064 341° North 263 303 10,400 -1,080 Descending Boston Center
05:51PM 42.2836 -73.6356 339° North 242 278 9,300 -1,560 Descending Boston Center
05:52PM 42.3436 -73.6733 335° Northwest 226 260 7,500 -1,800 Descending Boston Center
05:53PM 42.4017 -73.7081 336° Northwest 222 255 5,700 -1,200 Descending Boston Center
05:54PM 42.4597 -73.7431 336° Northwest 235 270 5,100 -660 Descending Boston Center
05:55PM 42.5175 -73.7753 338° Northwest 209 241 4,400 -840 Descending Boston Center
05:56PM 42.5653 -73.7989 340° North 176 203 3,400 -840 Descending Boston Center
05:57PM 42.6214 -73.8000 359° North 181 208 2,700 -840 Descending Boston Center
05:58PM 42.6694 -73.8039 357° North 175 201 1,700 -1,020 Descending Boston Center